createdAt,value
2022-12-19T00:01:43.581Z,58.40
2022-12-19T00:04:51.188Z,54.23
2022-12-19T00:07:56.435Z,48.17
2022-12-19T00:11:04.218Z,46.37
2022-12-19T00:14:09.670Z,53.20
2022-12-19T00:17:14.640Z,50.20
2022-12-19T00:20:22.132Z,53.43
2022-12-19T00:23:27.045Z,54.03
2022-12-19T00:26:33.427Z,45.20
2022-12-19T00:29:38.368Z,52.67
2022-12-19T00:32:43.241Z,52.97
2022-12-19T00:35:50.679Z,53.00
2022-12-19T00:38:56.873Z,55.73
2022-12-19T00:42:01.677Z,48.17
2022-12-19T00:45:07.027Z,49.10
2022-12-19T00:48:11.848Z,58.20
2022-12-19T00:51:23.776Z,37.20
2022-12-19T00:54:29.112Z,50.67
2022-12-19T00:57:34.417Z,55.33
2022-12-19T01:00:39.317Z,47.77
2022-12-19T01:04:11.296Z,50.33
2022-12-19T01:07:14.904Z,49.40
2022-12-19T01:10:19.964Z,53.40
2022-12-19T01:13:23.407Z,52.47
2022-12-19T01:16:28.373Z,47.43
2022-12-19T01:19:33.265Z,51.40
2022-12-19T01:22:40.780Z,58.90
2022-12-19T01:25:51.413Z,53.07
2022-12-19T01:28:56.229Z,53.80
2022-12-19T01:32:01.155Z,53.70
2022-12-19T01:35:06.599Z,45.60
2022-12-19T01:38:19.415Z,54.20
2022-12-19T01:41:24.246Z,61.67
2022-12-19T01:44:29.529Z,54.03
2022-12-19T01:47:36.104Z,56.00
2022-12-19T01:50:48.150Z,52.50
2022-12-19T01:54:10.732Z,51.57
2022-12-19T01:57:18.542Z,51.10
2022-12-19T02:00:23.742Z,52.73
2022-12-19T02:03:31.487Z,41.77
2022-12-19T02:06:37.914Z,59.30
2022-12-19T02:09:47.159Z,59.03
2022-12-19T02:12:55.585Z,55.90
2022-12-19T02:16:11.223Z,56.20
2022-12-19T02:19:51.119Z,53.83
2022-12-19T02:23:15.281Z,47.10
2022-12-19T02:26:47.984Z,54.47
2022-12-19T02:30:11.891Z,46.83
2022-12-19T02:33:24.156Z,56.03
2022-12-19T02:36:38.992Z,53.13
2022-12-19T02:39:51.876Z,51.97
2022-12-19T02:43:02.455Z,50.63
2022-12-19T02:46:09.346Z,54.60
2022-12-19T02:49:20.999Z,53.10
2022-12-19T02:52:49.029Z,50.73
2022-12-19T02:56:03.562Z,56.23
2022-12-19T02:59:25.989Z,66.10
2022-12-19T03:02:37.731Z,52.17
2022-12-19T03:05:56.369Z,64.47
2022-12-19T03:09:11.232Z,59.27
2022-12-19T03:12:23.799Z,55.53
2022-12-19T03:15:30.594Z,54.47
2022-12-19T03:18:36.708Z,54.60
2022-12-19T03:21:47.071Z,53.87
2022-12-19T03:24:51.905Z,50.13
2022-12-19T03:27:59.566Z,50.43
2022-12-19T03:31:06.467Z,64.60
2022-12-19T03:34:16.806Z,52.70
2022-12-19T03:37:28.273Z,46.10
2022-12-19T03:40:37.738Z,54.23
2022-12-19T03:43:42.837Z,56.60
2022-12-19T03:46:55.930Z,57.00
2022-12-19T03:50:01.018Z,55.77
2022-12-19T03:53:18.742Z,60.90
2022-12-19T03:56:34.008Z,57.50
2022-12-19T03:59:43.887Z,58.00
2022-12-19T04:02:52.771Z,63.40
2022-12-19T04:05:58.965Z,57.23
2022-12-19T04:09:07.118Z,60.80
2022-12-19T04:12:16.754Z,60.90
2022-12-19T04:15:27.078Z,63.37
2022-12-19T04:18:33.214Z,55.73
2022-12-19T04:21:44.182Z,51.57
2022-12-19T04:24:55.595Z,61.50
2022-12-19T04:28:04.778Z,57.83
2022-12-19T04:31:11.001Z,65.60
2022-12-19T04:34:15.949Z,55.57
2022-12-19T04:37:20.952Z,61.70
2022-12-19T04:40:28.701Z,57.13
2022-12-19T04:43:33.570Z,58.43
2022-12-19T04:46:38.431Z,64.53
2022-12-19T04:49:43.271Z,53.83
2022-12-19T04:52:48.243Z,66.10
2022-12-19T04:56:03.358Z,61.23
2022-12-19T04:59:08.236Z,62.87
2022-12-19T05:02:13.212Z,61.90
2022-12-19T05:05:19.093Z,65.33
2022-12-19T05:08:23.968Z,68.63
2022-12-19T05:11:31.516Z,56.90
2022-12-19T05:14:36.589Z,67.30
2022-12-19T05:17:41.444Z,64.23
2022-12-19T05:20:46.365Z,62.47
2022-12-19T05:23:52.210Z,56.63
2022-12-19T05:26:59.636Z,59.03
2022-12-19T05:30:04.492Z,59.77
2022-12-19T05:33:09.468Z,61.27
2022-12-19T05:36:15.563Z,53.83
2022-12-19T05:39:20.426Z,67.40
2022-12-19T05:42:28.878Z,59.70
2022-12-19T05:45:33.708Z,65.13
2022-12-19T05:48:39.307Z,59.30
2022-12-19T05:51:44.097Z,65.03
2022-12-19T05:54:48.955Z,61.77
2022-12-19T05:57:56.512Z,59.27
2022-12-19T06:01:05.565Z,63.80
2022-12-19T06:04:10.683Z,61.57
2022-12-19T06:07:20.732Z,65.80
2022-12-19T06:10:26.240Z,58.13
2022-12-19T06:13:36.800Z,64.93
2022-12-19T06:16:41.671Z,54.67
2022-12-19T06:19:47.300Z,62.80
2022-12-19T06:22:52.153Z,68.70
2022-12-19T06:26:00.300Z,62.80
2022-12-19T06:29:07.793Z,63.77
2022-12-19T06:32:12.916Z,72.10
2022-12-19T06:35:17.932Z,70.70
2022-12-19T06:38:22.801Z,68.80
2022-12-19T06:41:40.627Z,63.10
2022-12-19T06:44:48.121Z,74.07
2022-12-19T06:47:53.008Z,63.63
2022-12-19T06:50:58.123Z,66.10
2022-12-19T06:54:03.316Z,57.33
2022-12-19T06:57:08.221Z,60.77
2022-12-19T07:00:17.212Z,70.43
2022-12-19T07:03:25.894Z,65.10
2022-12-19T07:06:31.522Z,66.33
2022-12-19T07:09:37.619Z,68.57
2022-12-19T07:12:42.426Z,72.90
2022-12-19T07:15:50.519Z,70.13
2022-12-19T07:18:55.414Z,67.33
2022-12-19T07:22:01.902Z,63.00
2022-12-19T07:25:08.921Z,65.63
2022-12-19T07:28:13.970Z,66.00
2022-12-19T07:31:21.427Z,66.80
2022-12-19T07:34:26.308Z,65.07
2022-12-19T07:37:31.175Z,72.40
2022-12-19T07:40:36.596Z,62.90
2022-12-19T07:43:41.429Z,71.43
2022-12-19T07:46:49.062Z,74.10
2022-12-19T07:49:54.095Z,58.57
2022-12-19T07:53:00.040Z,57.70
2022-12-19T07:56:04.963Z,68.40
2022-12-19T07:59:10.107Z,63.67
2022-12-19T08:02:17.651Z,63.93
2022-12-19T08:05:23.174Z,63.63
2022-12-19T08:08:28.074Z,72.30
2022-12-19T08:11:33.015Z,65.10
2022-12-19T08:14:37.807Z,61.57
2022-12-19T08:17:45.295Z,64.57
2022-12-19T08:20:50.121Z,63.43
2022-12-19T08:23:54.923Z,57.67
2022-12-19T08:26:59.940Z,62.70
2022-12-19T08:30:04.928Z,61.67
2022-12-19T08:33:12.574Z,69.43
2022-12-19T08:36:19.142Z,59.67
2022-12-19T08:39:24.011Z,63.43
2022-12-19T08:42:28.830Z,74.20
2022-12-19T08:45:33.728Z,60.47
2022-12-19T08:48:41.143Z,67.70
2022-12-19T08:51:46.061Z,61.50
2022-12-19T08:54:51.214Z,61.67
2022-12-19T08:57:56.131Z,60.63
2022-12-19T09:01:05.486Z,63.90
2022-12-19T09:05:28.503Z,60.83
2022-12-19T09:07:39.990Z,63.47
2022-12-19T09:10:44.895Z,62.93
2022-12-19T09:13:51.763Z,64.87
2022-12-19T09:16:56.645Z,60.27
2022-12-19T09:20:06.989Z,55.90
2022-12-19T09:23:11.796Z,61.43
2022-12-19T09:26:17.228Z,67.97
2022-12-19T09:29:22.477Z,59.33
2022-12-19T09:32:27.429Z,75.27
2022-12-19T09:35:34.875Z,64.03
2022-12-19T09:38:39.692Z,67.13
2022-12-19T09:42:08.442Z,60.90
2022-12-19T09:45:31.559Z,61.08
2022-12-19T09:48:38.108Z,60.08
2022-12-19T09:51:52.851Z,61.30
2022-12-19T09:55:04.949Z,55.33
2022-12-19T09:58:16.280Z,64.75
2022-12-19T10:01:25.274Z,64.45
2022-12-19T10:04:33.190Z,57.05
2022-12-19T10:08:05.452Z,63.25
2022-12-19T10:12:39.024Z,61.38
2022-12-19T10:14:50.965Z,55.47
2022-12-19T10:18:18.856Z,59.40
2022-12-19T10:22:17.247Z,61.45
2022-12-19T10:25:18.924Z,57.47
2022-12-19T10:28:48.216Z,56.00
2022-12-19T10:32:01.202Z,61.95
2022-12-19T10:35:15.677Z,58.20
2022-12-19T10:38:27.397Z,55.35
2022-12-19T10:41:40.726Z,58.80
2022-12-19T10:44:50.599Z,57.42
2022-12-19T10:48:00.388Z,56.30
2022-12-19T10:51:06.692Z,60.00
2022-12-19T10:54:12.645Z,62.67
2022-12-19T10:57:28.373Z,63.10
2022-12-19T11:00:33.331Z,55.50
2022-12-19T11:03:38.962Z,60.20
2022-12-19T11:06:52.958Z,59.05
2022-12-19T11:10:05.321Z,57.58
2022-12-19T11:20:38.196Z,59.65
2022-12-19T11:24:42.809Z,60.70
2022-12-19T11:29:30.352Z,60.10
2022-12-19T11:29:39.637Z,60.72
2022-12-19T11:29:46.979Z,55.60
2022-12-19T11:34:35.781Z,61.28
2022-12-19T11:37:46.818Z,55.55
2022-12-19T11:40:55.605Z,61.95
2022-12-19T11:44:04.890Z,65.90
2022-12-19T11:47:24.776Z,62.25
2022-12-19T11:50:32.931Z,57.55
2022-12-19T11:53:48.867Z,59.20
2022-12-19T11:56:53.750Z,58.65
2022-12-19T12:00:04.628Z,60.00
2022-12-19T12:03:32.173Z,58.88
2022-12-19T12:06:45.299Z,55.13
2022-12-19T12:13:17.277Z,60.20
2022-12-19T12:22:14.676Z,60.17
2022-12-19T12:30:05.550Z,70.65
2022-12-19T12:31:23.085Z,60.67
2022-12-19T12:31:38.991Z,70.10
2022-12-19T12:31:52.361Z,61.58
2022-12-19T12:35:42.531Z,67.15
2022-12-19T12:39:06.933Z,65.90
2022-12-19T12:42:26.135Z,56.05
2022-12-19T12:45:38.029Z,65.65
2022-12-19T12:48:50.464Z,60.33
2022-12-19T12:51:56.282Z,66.35
2022-12-19T12:55:06.075Z,70.60
2022-12-19T12:58:48.810Z,67.72
2022-12-19T13:02:00.288Z,68.05
2022-12-19T13:05:26.663Z,70.07
2022-12-19T13:08:42.717Z,63.22
2022-12-19T13:12:06.055Z,63.60
2022-12-19T13:15:43.249Z,61.03
2022-12-19T13:19:11.534Z,63.80
2022-12-19T13:22:44.023Z,69.10
2022-12-19T13:25:53.166Z,61.50
2022-12-19T13:29:29.680Z,61.15
2022-12-19T13:32:56.413Z,67.82
2022-12-19T13:39:49.476Z,67.43
2022-12-19T13:39:59.187Z,58.58
2022-12-19T13:43:18.362Z,69.07
2022-12-19T13:46:41.687Z,66.13
2022-12-19T13:49:47.511Z,66.03
2022-12-19T13:52:53.009Z,57.05
2022-12-19T13:55:59.109Z,58.67
2022-12-19T13:59:07.676Z,63.22
2022-12-19T14:02:20.945Z,70.20
2022-12-19T14:06:15.153Z,68.82
2022-12-19T14:11:26.223Z,67.13
2022-12-19T14:13:48.268Z,68.80
2022-12-19T14:16:08.905Z,58.80
2022-12-19T14:19:24.564Z,72.45
2022-12-19T14:22:29.410Z,69.32
2022-12-19T14:28:20.205Z,62.22
2022-12-19T14:29:08.557Z,70.63
2022-12-19T14:33:39.551Z,62.63
2022-12-19T14:36:08.442Z,70.65
2022-12-19T14:39:28.460Z,71.68
2022-12-19T14:43:56.815Z,60.30
2022-12-19T14:54:01.754Z,68.60
2022-12-19T14:54:12.044Z,76.65
2022-12-19T14:54:41.912Z,70.35
2022-12-19T14:56:59.919Z,70.47
2022-12-19T15:01:09.680Z,70.75
2022-12-19T15:04:47.812Z,73.03
2022-12-19T15:07:24.853Z,65.45
2022-12-19T15:11:04.352Z,76.18
2022-12-19T15:14:53.854Z,72.68
2022-12-19T15:17:28.629Z,78.15
2022-12-19T15:20:33.514Z,75.20
2022-12-19T15:23:38.466Z,71.22
2022-12-19T15:26:50.335Z,71.90
2022-12-19T15:29:55.237Z,73.50
2022-12-19T15:33:00.055Z,72.18
2022-12-19T15:36:04.940Z,74.95
2022-12-19T15:39:09.760Z,65.43
2022-12-19T15:42:23.351Z,75.65
2022-12-19T15:45:28.495Z,75.70
2022-12-19T15:48:33.360Z,76.35
2022-12-19T15:51:38.518Z,75.65
2022-12-19T15:54:51.217Z,74.80
2022-12-19T15:58:02.928Z,80.57
2022-12-19T16:01:08.108Z,72.05
2022-12-19T16:04:16.459Z,74.15
2022-12-19T16:07:25.456Z,75.78
2022-12-19T16:10:30.486Z,82.88
2022-12-19T16:13:38.193Z,92.57
2022-12-19T16:16:43.515Z,81.28
2022-12-19T16:19:48.714Z,71.68
2022-12-19T16:22:53.966Z,74.00
2022-12-19T16:26:00.105Z,71.72
2022-12-19T16:29:08.217Z,86.40
2022-12-19T16:32:14.835Z,77.30
2022-12-19T16:35:40.182Z,84.10
2022-12-19T16:38:45.976Z,77.40
2022-12-19T16:41:50.894Z,79.47
2022-12-19T16:44:58.418Z,86.00
2022-12-19T16:48:03.438Z,90.55
2022-12-19T16:51:08.511Z,82.35
2022-12-19T16:54:15.851Z,84.10
2022-12-19T16:57:23.932Z,97.15
2022-12-19T17:00:31.412Z,93.70
2022-12-19T17:03:42.009Z,90.10
2022-12-19T17:06:47.337Z,86.13
2022-12-19T17:09:52.331Z,85.57
2022-12-19T17:12:58.557Z,90.80
2022-12-19T17:16:07.622Z,89.23
2022-12-19T17:19:18.138Z,87.93
2022-12-19T17:22:23.587Z,82.20
2022-12-19T17:25:30.395Z,92.67
2022-12-19T17:28:35.344Z,100.67
2022-12-19T17:31:43.339Z,97.33
2022-12-19T17:34:48.217Z,105.17
2022-12-19T17:37:55.407Z,104.43
2022-12-19T17:41:00.523Z,104.33
2022-12-19T17:44:05.331Z,102.53
2022-12-19T17:47:16.210Z,97.83
2022-12-19T17:50:26.721Z,97.83
2022-12-19T17:53:31.618Z,97.90
2022-12-19T17:56:36.481Z,96.60
2022-12-19T17:59:41.934Z,96.97
2022-12-19T18:02:51.664Z,105.57
2022-12-19T18:05:58.378Z,106.00
2022-12-19T18:09:03.813Z,97.07
2022-12-19T18:12:09.482Z,98.53
2022-12-19T18:15:14.737Z,104.27
2022-12-19T18:18:30.594Z,100.20
2022-12-19T18:21:35.966Z,102.63
2022-12-19T18:24:40.860Z,108.27
2022-12-19T18:27:46.033Z,118.93
2022-12-19T18:30:52.639Z,104.33
2022-12-19T18:34:07.392Z,103.57
2022-12-19T18:37:17.382Z,111.77
2022-12-19T18:40:31.156Z,96.23
2022-12-19T18:43:36.634Z,107.17
2022-12-19T18:46:41.711Z,109.03
2022-12-19T18:49:49.315Z,111.43
2022-12-19T18:52:56.074Z,114.00
2022-12-19T18:56:01.022Z,94.27
2022-12-19T18:59:05.931Z,102.07
2022-12-19T19:02:27.782Z,102.40
2022-12-19T19:05:38.697Z,103.93
2022-12-19T19:08:43.622Z,109.63
2022-12-19T19:11:48.666Z,94.30
2022-12-19T19:14:56.711Z,115.77
2022-12-19T19:18:03.818Z,102.10
2022-12-19T19:21:14.859Z,110.23
2022-12-19T19:24:23.757Z,112.93
2022-12-19T19:27:28.558Z,107.00
2022-12-19T19:30:34.491Z,107.40
2022-12-19T19:33:42.700Z,124.30
2022-12-19T19:36:54.970Z,115.77
2022-12-19T19:39:59.877Z,105.77
2022-12-19T19:43:04.777Z,103.37
2022-12-19T19:46:09.818Z,113.07
2022-12-19T19:49:15.694Z,113.30
2022-12-19T19:52:23.301Z,120.97
2022-12-19T19:55:28.880Z,110.33
2022-12-19T19:58:34.002Z,128.63
2022-12-19T20:01:38.971Z,135.40
2022-12-19T20:04:44.097Z,117.57
2022-12-19T20:07:51.590Z,115.00
2022-12-19T20:10:58.215Z,111.33
2022-12-19T20:14:04.932Z,120.33
2022-12-19T20:17:09.944Z,118.83
2022-12-19T20:20:15.945Z,125.23
2022-12-19T20:23:23.412Z,107.47
2022-12-19T20:26:28.566Z,127.90
2022-12-19T20:29:33.388Z,122.90
2022-12-19T20:32:38.248Z,123.17
2022-12-19T20:35:43.180Z,136.43
2022-12-19T20:38:51.815Z,119.60
2022-12-19T20:41:57.606Z,119.77
2022-12-19T20:45:02.692Z,119.43
2022-12-19T20:48:07.828Z,118.97
2022-12-19T20:51:12.909Z,119.37
2022-12-19T20:54:20.264Z,138.10
2022-12-19T20:57:25.207Z,119.10
2022-12-19T21:00:30.692Z,115.70
2022-12-19T21:03:35.828Z,129.87
2022-12-19T21:06:41.512Z,118.17
2022-12-19T21:09:51.052Z,111.37
2022-12-19T21:12:56.507Z,124.13
2022-12-19T21:16:03.487Z,118.70
2022-12-19T21:19:08.859Z,112.70
2022-12-19T21:22:13.943Z,116.53
2022-12-19T21:25:21.947Z,105.33
2022-12-19T21:28:27.470Z,112.43
2022-12-19T21:31:33.373Z,106.20
2022-12-19T21:34:38.391Z,111.30
2022-12-19T21:37:44.486Z,118.37
2022-12-19T21:40:52.118Z,125.17
2022-12-19T21:43:58.040Z,113.23
2022-12-19T21:47:03.209Z,116.20
2022-12-19T21:50:09.293Z,128.53
2022-12-19T21:53:14.232Z,119.87
2022-12-19T21:56:27.077Z,119.60
2022-12-19T21:59:32.016Z,107.07
2022-12-19T22:02:37.703Z,102.53
2022-12-19T22:05:42.935Z,112.97
2022-12-19T22:08:48.432Z,118.93
2022-12-19T22:11:55.871Z,116.87
2022-12-19T22:15:00.685Z,112.57
2022-12-19T22:18:05.550Z,123.03
2022-12-19T22:21:12.075Z,110.87
2022-12-19T22:24:20.139Z,108.43
2022-12-19T22:27:28.004Z,107.97
2022-12-19T22:30:35.987Z,114.47
2022-12-19T22:33:40.799Z,106.93
2022-12-19T22:36:47.288Z,105.07
2022-12-19T22:39:52.069Z,101.83
2022-12-19T22:42:59.517Z,101.60
2022-12-19T22:46:04.464Z,101.67
2022-12-19T22:49:11.203Z,112.13
2022-12-19T22:52:16.018Z,109.57
2022-12-19T22:55:21.419Z,102.37
2022-12-19T22:58:28.846Z,106.13
2022-12-19T23:01:35.691Z,104.13
2022-12-19T23:04:40.619Z,105.17
2022-12-19T23:07:45.602Z,114.10
2022-12-19T23:10:53.303Z,113.13
2022-12-19T23:14:01.161Z,116.40
2022-12-19T23:17:06.068Z,106.90
2022-12-19T23:20:12.277Z,100.17
2022-12-19T23:23:17.229Z,103.37
2022-12-19T23:26:23.982Z,95.30
2022-12-19T23:29:31.522Z,107.30
2022-12-19T23:32:36.436Z,104.70
2022-12-19T23:35:41.339Z,102.70
2022-12-19T23:38:46.236Z,113.80
2022-12-19T23:41:51.128Z,105.07
2022-12-19T23:44:58.779Z,108.03
2022-12-19T23:48:03.641Z,104.23
2022-12-19T23:51:11.737Z,109.03
2022-12-19T23:54:16.809Z,110.77
2022-12-19T23:57:22.183Z,100.17
